KBAM/BAM METAR and TAF weather

Enter ICAO airport designator
Station Type Date Time Source
KBAM METAR 2020/08/07 12:35 UTC NOAA

KBAM 071235Z AUTO 01005KT 10SM CLR 15/05 A3003 RMK AO1


Station Type Date Time Source
KBAM Decoded METAR 2020/08/07 12:35 UTC NOAA

Station name not available
Aug 07, 2020 - 08:35 AM EDT / 2020.08.07 1235 UTC
Wind: from the N (010 degrees) at 6 MPH (5 KT):0
Visibility: 10 mile(s):0
Sky conditions: clear
Temperature: 59 F (15 C)
Dew Point: 41 F (5 C)
Relative Humidity: 51%
Pressure (altimeter): 30.03 in. Hg (1016 hPa)
ob: KBAM 071235Z AUTO 01005KT 10SM CLR 15/05 A3003 RMK AO1
cycle: 12

Station Type Date Time Source
KBAM TAF 2020/08/07 12:22 UTC NOAA

TAF KBAM 071120Z 0712/0812 VRB05KT P6SM SKC
FM072100 01011KT P6SM FEW130
FM080600 VRB06KT P6SM SKC

Example: see airport list